sensor_id;sensor_type;location;lat;lon;timestamp;pressure;altitude;pressure_sealevel;temperature;humidity
62703;BME280;48766;50.446;18.128;2022-12-10T00:02:47;97995.78;;;1.29;83.62
62703;BME280;48766;50.446;18.128;2022-12-10T00:06:57;97993.80;;;1.27;83.87
62703;BME280;48766;50.446;18.128;2022-12-10T00:11:07;97993.66;;;1.28;82.92
62703;BME280;48766;50.446;18.128;2022-12-10T00:15:17;97994.37;;;1.28;87.27
62703;BME280;48766;50.446;18.128;2022-12-10T00:19:27;97997.52;;;1.30;82.70
62703;BME280;48766;50.446;18.128;2022-12-10T00:23:37;98002.39;;;1.32;81.74
62703;BME280;48766;50.446;18.128;2022-12-10T00:27:47;98006.67;;;1.35;82.77
62703;BME280;48766;50.446;18.128;2022-12-10T00:31:57;98007.24;;;1.38;82.02
62703;BME280;48766;50.446;18.128;2022-12-10T00:36:08;98007.72;;;1.39;84.05
62703;BME280;48766;50.446;18.128;2022-12-10T00:40:17;98007.89;;;1.41;82.10
62703;BME280;48766;50.446;18.128;2022-12-10T00:44:31;98010.78;;;1.41;86.52
62703;BME280;48766;50.446;18.128;2022-12-10T00:48:37;98014.90;;;1.44;82.80
62703;BME280;48766;50.446;18.128;2022-12-10T00:52:47;98017.13;;;1.44;81.97
62703;BME280;48766;50.446;18.128;2022-12-10T00:56:57;98020.37;;;1.43;83.21
62703;BME280;48766;50.446;18.128;2022-12-10T01:01:12;98021.19;;;1.44;82.33
62703;BME280;48766;50.446;18.128;2022-12-10T01:05:17;98020.70;;;1.42;86.41
62703;BME280;48766;50.446;18.128;2022-12-10T01:09:27;98019.72;;;1.43;82.45
62703;BME280;48766;50.446;18.128;2022-12-10T01:13:37;98018.47;;;1.42;82.04
62703;BME280;48766;50.446;18.128;2022-12-10T01:17:47;98018.71;;;1.42;82.58
62703;BME280;48766;50.446;18.128;2022-12-10T01:21:57;98018.63;;;1.42;82.00
62703;BME280;48766;50.446;18.128;2022-12-10T01:26:09;98017.80;;;1.42;84.35
62703;BME280;48766;50.446;18.128;2022-12-10T01:30:17;98017.47;;;1.42;82.87
62703;BME280;48766;50.446;18.128;2022-12-10T01:34:27;98018.16;;;1.39;86.73
62703;BME280;48766;50.446;18.128;2022-12-10T01:38:37;98020.29;;;1.40;82.91
62703;BME280;48766;50.446;18.128;2022-12-10T01:42:47;98023.46;;;1.41;81.92
62703;BME280;48766;50.446;18.128;2022-12-10T01:46:58;98026.44;;;1.41;83.06
62703;BME280;48766;50.446;18.128;2022-12-10T01:51:07;98032.20;;;1.43;81.79
62703;BME280;48766;50.446;18.128;2022-12-10T01:59:27;98043.03;;;1.45;83.28
62703;BME280;48766;50.446;18.128;2022-12-10T02:03:47;98043.04;;;1.44;84.55
62703;BME280;48766;50.446;18.128;2022-12-10T02:20:19;98029.47;;;1.30;85.50
62703;BME280;48766;50.446;18.128;2022-12-10T02:24:28;98027.26;;;1.24;88.05
62703;BME280;48766;50.446;18.128;2022-12-10T02:32:47;98023.56;;;1.20;85.63
62703;BME280;48766;50.446;18.128;2022-12-10T02:36:57;98023.40;;;1.17;86.38
62703;BME280;48766;50.446;18.128;2022-12-10T02:41:14;98025.05;;;1.16;84.96
62703;BME280;48766;50.446;18.128;2022-12-10T02:45:18;98027.22;;;1.14;88.27
62703;BME280;48766;50.446;18.128;2022-12-10T02:49:27;98029.52;;;1.14;85.02
62703;BME280;48766;50.446;18.128;2022-12-10T02:57:54;98034.18;;;1.13;84.77
62703;BME280;48766;50.446;18.128;2022-12-10T03:14:28;98041.86;;;1.12;87.71
62703;BME280;48766;50.446;18.128;2022-12-10T03:18:37;98044.67;;;1.14;83.87
62703;BME280;48766;50.446;18.128;2022-12-10T03:22:47;98047.74;;;1.15;83.45
62703;BME280;48766;50.446;18.128;2022-12-10T03:26:57;98049.46;;;1.15;84.37
62703;BME280;48766;50.446;18.128;2022-12-10T03:31:10;98049.37;;;1.18;84.24
62703;BME280;48766;50.446;18.128;2022-12-10T03:35:18;98049.70;;;1.17;87.45
62703;BME280;48766;50.446;18.128;2022-12-10T03:39:27;98051.68;;;1.19;83.19
62703;BME280;48766;50.446;18.128;2022-12-10T03:43:49;98054.72;;;1.20;82.67
62703;BME280;48766;50.446;18.128;2022-12-10T03:47:47;98059.38;;;1.22;83.16
62703;BME280;48766;50.446;18.128;2022-12-10T03:51:57;98062.98;;;1.25;82.70
62703;BME280;48766;50.446;18.128;2022-12-10T03:56:07;98065.96;;;1.27;84.55
62703;BME280;48766;50.446;18.128;2022-12-10T04:00:17;98066.13;;;1.30;82.35
62703;BME280;48766;50.446;18.128;2022-12-10T04:04:27;98067.35;;;1.31;86.08
62703;BME280;48766;50.446;18.128;2022-12-10T04:08:37;98071.06;;;1.34;81.95
62703;BME280;48766;50.446;18.128;2022-12-10T04:12:47;98073.86;;;1.36;82.40
62703;BME280;48766;50.446;18.128;2022-12-10T04:16:58;98077.76;;;1.36;82.96
62703;BME280;48766;50.446;18.128;2022-12-10T04:21:07;98081.87;;;1.38;82.00
62703;BME280;48766;50.446;18.128;2022-12-10T04:25:18;98087.59;;;1.40;86.15
62703;BME280;48766;50.446;18.128;2022-12-10T04:29:28;98094.53;;;1.43;82.10
62703;BME280;48766;50.446;18.128;2022-12-10T04:33:37;98102.69;;;1.46;82.16
62703;BME280;48766;50.446;18.128;2022-12-10T04:37:47;98110.97;;;1.49;82.79
62703;BME280;48766;50.446;18.128;2022-12-10T04:41:58;98116.50;;;1.52;82.06
62703;BME280;48766;50.446;18.128;2022-12-10T04:46:08;98119.89;;;1.55;84.11
62703;BME280;48766;50.446;18.128;2022-12-10T04:50:17;98122.85;;;1.58;81.46
62703;BME280;48766;50.446;18.128;2022-12-10T04:54:28;98125.42;;;1.60;85.02
62703;BME280;48766;50.446;18.128;2022-12-10T04:58:38;98128.11;;;1.63;81.01
62703;BME280;48766;50.446;18.128;2022-12-10T05:02:48;98130.36;;;1.65;80.68
62703;BME280;48766;50.446;18.128;2022-12-10T05:06:58;98132.42;;;1.65;81.39
62703;BME280;48766;50.446;18.128;2022-12-10T05:11:12;98135.63;;;1.68;80.86
62703;BME280;48766;50.446;18.128;2022-12-10T05:15:18;98138.87;;;1.68;84.27
62703;BME280;48766;50.446;18.128;2022-12-10T05:19:27;98141.76;;;1.69;80.47
62703;BME280;48766;50.446;18.128;2022-12-10T05:23:38;98144.31;;;1.70;80.06
62703;BME280;48766;50.446;18.128;2022-12-10T05:27:48;98145.81;;;1.70;80.99
62703;BME280;48766;50.446;18.128;2022-12-10T05:31:58;98146.88;;;1.69;81.09
62703;BME280;48766;50.446;18.128;2022-12-10T05:36:09;98148.65;;;1.65;82.75
62703;BME280;48766;50.446;18.128;2022-12-10T05:40:18;98150.23;;;1.64;81.17
62703;BME280;48766;50.446;18.128;2022-12-10T05:44:27;98150.97;;;1.59;84.71
62703;BME280;48766;50.446;18.128;2022-12-10T05:48:38;98150.25;;;1.59;80.87
62703;BME280;48766;50.446;18.128;2022-12-10T05:52:49;98146.76;;;1.58;80.77
62703;BME280;48766;50.446;18.128;2022-12-10T05:56:58;98143.98;;;1.54;81.93
62703;BME280;48766;50.446;18.128;2022-12-10T06:01:09;98139.75;;;1.55;80.33
62703;BME280;48766;50.446;18.128;2022-12-10T06:05:18;98137.85;;;1.54;84.59
62703;BME280;48766;50.446;18.128;2022-12-10T06:09:28;98136.83;;;1.57;81.02
62703;BME280;48766;50.446;18.128;2022-12-10T06:13:38;98137.41;;;1.59;80.28
62703;BME280;48766;50.446;18.128;2022-12-10T06:17:48;98140.80;;;1.61;80.49
62703;BME280;48766;50.446;18.128;2022-12-10T06:21:58;98142.77;;;1.63;80.77
62703;BME280;48766;50.446;18.128;2022-12-10T06:26:09;98143.27;;;1.64;81.82
62703;BME280;48766;50.446;18.128;2022-12-10T06:30:18;98143.57;;;1.67;80.03
62703;BME280;48766;50.446;18.128;2022-12-10T06:34:28;98146.57;;;1.67;83.74
62703;BME280;48766;50.446;18.128;2022-12-10T06:38:38;98151.78;;;1.70;80.55
62703;BME280;48766;50.446;18.128;2022-12-10T06:42:50;98157.90;;;1.71;80.35
62703;BME280;48766;50.446;18.128;2022-12-10T06:46:58;98162.38;;;1.68;81.19
62703;BME280;48766;50.446;18.128;2022-12-10T06:51:08;98166.86;;;1.67;79.97
62703;BME280;48766;50.446;18.128;2022-12-10T06:55:18;98173.39;;;1.65;83.59
62703;BME280;48766;50.446;18.128;2022-12-10T06:59:28;98180.69;;;1.66;80.17
62703;BME280;48766;50.446;18.128;2022-12-10T07:03:38;98186.14;;;1.66;79.92
62703;BME280;48766;50.446;18.128;2022-12-10T07:07:48;98191.87;;;1.65;80.42
62703;BME280;48766;50.446;18.128;2022-12-10T07:11:58;98195.65;;;1.65;80.21
62703;BME280;48766;50.446;18.128;2022-12-10T07:16:11;98198.56;;;1.63;82.07
62703;BME280;48766;50.446;18.128;2022-12-10T07:20:18;98201.81;;;1.62;80.63
62703;BME280;48766;50.446;18.128;2022-12-10T07:24:28;98204.71;;;1.58;83.92
62703;BME280;48766;50.446;18.128;2022-12-10T07:28:38;98206.30;;;1.56;80.52
62703;BME280;48766;50.446;18.128;2022-12-10T07:32:48;98209.09;;;1.56;80.40
62703;BME280;48766;50.446;18.128;2022-12-10T07:36:58;98211.85;;;1.53;81.21
62703;BME280;48766;50.446;18.128;2022-12-10T07:41:09;98216.64;;;1.53;80.14
62703;BME280;48766;50.446;18.128;2022-12-10T07:45:18;98220.54;;;1.52;84.32
62703;BME280;48766;50.446;18.128;2022-12-10T07:49:29;98222.53;;;1.52;80.94
62703;BME280;48766;50.446;18.128;2022-12-10T07:53:38;98224.52;;;1.50;80.64
62703;BME280;48766;50.446;18.128;2022-12-10T07:57:48;98228.42;;;1.49;81.21
62703;BME280;48766;50.446;18.128;2022-12-10T08:01:58;98232.79;;;1.50;80.40
62703;BME280;48766;50.446;18.128;2022-12-10T08:06:12;98236.05;;;1.49;82.38
62703;BME280;48766;50.446;18.128;2022-12-10T08:10:18;98240.02;;;1.48;81.12
62703;BME280;48766;50.446;18.128;2022-12-10T08:14:28;98243.98;;;1.44;85.13
62703;BME280;48766;50.446;18.128;2022-12-10T08:18:38;98246.65;;;1.43;81.98
62703;BME280;48766;50.446;18.128;2022-12-10T08:22:48;98249.05;;;1.41;82.26
62703;BME280;48766;50.446;18.128;2022-12-10T08:26:58;98252.29;;;1.38;83.25
62703;BME280;48766;50.446;18.128;2022-12-10T08:31:08;98254.35;;;1.37;82.15
62703;BME280;48766;50.446;18.128;2022-12-10T08:35:18;98254.78;;;1.33;86.02
62703;BME280;48766;50.446;18.128;2022-12-10T08:39:28;98252.46;;;1.32;82.94
62703;BME280;48766;50.446;18.128;2022-12-10T08:43:38;98250.65;;;1.30;82.46
62703;BME280;48766;50.446;18.128;2022-12-10T08:47:48;98251.45;;;1.29;83.05
62703;BME280;48766;50.446;18.128;2022-12-10T08:51:58;98252.04;;;1.29;81.86
62703;BME280;48766;50.446;18.128;2022-12-10T08:56:08;98251.95;;;1.29;83.55
62703;BME280;48766;50.446;18.128;2022-12-10T09:00:18;98251.79;;;1.32;81.55
62703;BME280;48766;50.446;18.128;2022-12-10T09:04:28;98252.06;;;1.32;85.63
62703;BME280;48766;50.446;18.128;2022-12-10T09:08:38;98252.45;;;1.34;81.73
62703;BME280;48766;50.446;18.128;2022-12-10T09:12:48;98252.79;;;1.35;81.50
62703;BME280;48766;50.446;18.128;2022-12-10T09:16:58;98252.13;;;1.37;82.55
62703;BME280;48766;50.446;18.128;2022-12-10T09:21:08;98249.55;;;1.43;80.54
62703;BME280;48766;50.446;18.128;2022-12-10T09:25:18;98244.58;;;1.47;84.21
62703;BME280;48766;50.446;18.128;2022-12-10T09:29:28;98240.81;;;1.53;80.65
62703;BME280;48766;50.446;18.128;2022-12-10T09:33:38;98237.67;;;1.58;80.30
62703;BME280;48766;50.446;18.128;2022-12-10T09:37:50;98232.36;;;1.62;81.16
62703;BME280;48766;50.446;18.128;2022-12-10T09:46:18;98224.72;;;1.63;82.86
62703;BME280;48766;50.446;18.128;2022-12-10T09:50:23;98222.49;;;1.61;81.38
62703;BME280;48766;50.446;18.128;2022-12-10T09:54:32;98220.47;;;1.56;84.89
62703;BME280;48766;50.446;18.128;2022-12-10T09:58:38;98218.63;;;1.53;82.09
62703;BME280;48766;50.446;18.128;2022-12-10T10:02:48;98219.16;;;1.50;81.68
62703;BME280;48766;50.446;18.128;2022-12-10T10:06:58;98221.71;;;1.44;82.47
62703;BME280;48766;50.446;18.128;2022-12-10T10:11:11;98224.38;;;1.42;82.01
62703;BME280;48766;50.446;18.128;2022-12-10T10:15:19;98225.65;;;1.37;85.96
62703;BME280;48766;50.446;18.128;2022-12-10T10:19:29;98221.75;;;1.34;83.78
62703;BME280;48766;50.446;18.128;2022-12-10T10:23:38;98218.38;;;1.30;83.04
62703;BME280;48766;50.446;18.128;2022-12-10T10:27:48;98217.88;;;1.26;83.44
62703;BME280;48766;50.446;18.128;2022-12-10T10:36:10;98215.23;;;1.20;84.75
62703;BME280;48766;50.446;18.128;2022-12-10T10:40:21;98210.21;;;1.18;83.04
62703;BME280;48766;50.446;18.128;2022-12-10T10:44:33;98207.79;;;1.15;86.13
62703;BME280;48766;50.446;18.128;2022-12-10T10:48:38;98210.13;;;1.16;82.26
62703;BME280;48766;50.446;18.128;2022-12-10T10:52:48;98213.67;;;1.18;81.88
62703;BME280;48766;50.446;18.128;2022-12-10T10:57:00;98215.84;;;1.17;83.15
62703;BME280;48766;50.446;18.128;2022-12-10T11:01:08;98216.08;;;1.19;82.80
62703;BME280;48766;50.446;18.128;2022-12-10T11:05:21;98213.50;;;1.18;86.44
62703;BME280;48766;50.446;18.128;2022-12-10T11:09:29;98211.17;;;1.20;83.07
62703;BME280;48766;50.446;18.128;2022-12-10T11:13:38;98210.04;;;1.20;82.32
62703;BME280;48766;50.446;18.128;2022-12-10T11:17:54;98210.27;;;1.21;83.39
62703;BME280;48766;50.446;18.128;2022-12-10T11:22:08;98210.94;;;1.23;82.08
62703;BME280;48766;50.446;18.128;2022-12-10T11:30:19;98213.33;;;1.26;82.56
62703;BME280;48766;50.446;18.128;2022-12-10T11:51:17;98213.83;;;1.30;82.56
62703;BME280;48766;50.446;18.128;2022-12-10T11:59:32;98212.17;;;1.30;81.84
62703;BME280;48766;50.446;18.128;2022-12-10T12:20:28;98215.30;;;1.36;81.28
62703;BME280;48766;50.446;18.128;2022-12-10T12:24:29;98216.03;;;1.34;84.74
62703;BME280;48766;50.446;18.128;2022-12-10T12:36:58;98214.31;;;1.34;82.04
62703;BME280;48766;50.446;18.128;2022-12-10T12:53:38;98207.61;;;1.35;81.57
62703;BME280;48766;50.446;18.128;2022-12-10T13:02:00;98204.19;;;1.37;81.93
62703;BME280;48766;50.446;18.128;2022-12-10T13:10:22;98202.39;;;1.37;81.50
62703;BME280;48766;50.446;18.128;2022-12-10T13:14:53;98204.13;;;1.35;84.57
62703;BME280;48766;50.446;18.128;2022-12-10T13:18:38;98206.84;;;1.37;81.59
62703;BME280;48766;50.446;18.128;2022-12-10T13:31:16;98209.07;;;1.39;80.76
62703;BME280;48766;50.446;18.128;2022-12-10T13:35:27;98210.00;;;1.39;85.02
62703;BME280;48766;50.446;18.128;2022-12-10T13:43:38;98216.27;;;1.40;81.17
62703;BME280;48766;50.446;18.128;2022-12-10T13:47:52;98218.19;;;1.40;81.52
62703;BME280;48766;50.446;18.128;2022-12-10T13:52:02;98219.02;;;1.39;80.99
62703;BME280;48766;50.446;18.128;2022-12-10T13:56:11;98221.58;;;1.38;82.80
62703;BME280;48766;50.446;18.128;2022-12-10T14:00:22;98224.31;;;1.39;80.86
62703;BME280;48766;50.446;18.128;2022-12-10T14:04:34;98227.86;;;1.38;84.39
62703;BME280;48766;50.446;18.128;2022-12-10T14:08:38;98231.50;;;1.40;81.10
62703;BME280;48766;50.446;18.128;2022-12-10T14:12:48;98234.48;;;1.40;80.79
62703;BME280;48766;50.446;18.128;2022-12-10T14:21:08;98244.16;;;1.39;81.91
62703;BME280;48766;50.446;18.128;2022-12-10T14:25:21;98245.09;;;1.36;85.40
62703;BME280;48766;50.446;18.128;2022-12-10T14:29:28;98246.50;;;1.35;81.73
62703;BME280;48766;50.446;18.128;2022-12-10T14:33:38;98247.00;;;1.34;81.30
62703;BME280;48766;50.446;18.128;2022-12-10T14:37:48;98247.99;;;1.34;82.21
62703;BME280;48766;50.446;18.128;2022-12-10T14:42:02;98249.22;;;1.34;81.62
62703;BME280;48766;50.446;18.128;2022-12-10T14:50:18;98253.45;;;1.34;81.06
62703;BME280;48766;50.446;18.128;2022-12-10T14:54:29;98256.45;;;1.31;84.61
62703;BME280;48766;50.446;18.128;2022-12-10T14:58:39;98261.14;;;1.32;81.19
62703;BME280;48766;50.446;18.128;2022-12-10T15:03:10;98264.45;;;1.32;81.13
62703;BME280;48766;50.446;18.128;2022-12-10T15:06:58;98266.38;;;1.30;82.29
62703;BME280;48766;50.446;18.128;2022-12-10T15:11:10;98266.28;;;1.30;81.37
62703;BME280;48766;50.446;18.128;2022-12-10T15:19:32;98266.77;;;1.29;81.94
62703;BME280;48766;50.446;18.128;2022-12-10T15:23:38;98265.37;;;1.28;81.83
62703;BME280;48766;50.446;18.128;2022-12-10T15:31:59;98267.17;;;1.29;81.54
62703;BME280;48766;50.446;18.128;2022-12-10T15:36:11;98268.00;;;1.29;83.60
62703;BME280;48766;50.446;18.128;2022-12-10T15:48:41;98269.58;;;1.25;82.45
62703;BME280;48766;50.446;18.128;2022-12-10T15:52:49;98269.26;;;1.24;82.01
62703;BME280;48766;50.446;18.128;2022-12-10T15:56:58;98269.53;;;1.22;82.87
62703;BME280;48766;50.446;18.128;2022-12-10T16:01:09;98268.37;;;1.22;82.27
62703;BME280;48766;50.446;18.128;2022-12-10T16:05:19;98266.36;;;1.20;86.20
62703;BME280;48766;50.446;18.128;2022-12-10T16:09:28;98264.47;;;1.21;82.59
62703;BME280;48766;50.446;18.128;2022-12-10T16:13:38;98262.64;;;1.20;82.40
62703;BME280;48766;50.446;18.128;2022-12-10T16:17:48;98259.84;;;1.19;82.64
62703;BME280;48766;50.446;18.128;2022-12-10T16:21:58;98257.76;;;1.18;83.11
62703;BME280;48766;50.446;18.128;2022-12-10T16:26:18;98257.26;;;1.14;85.34
62703;BME280;48766;50.446;18.128;2022-12-10T16:34:28;98257.11;;;1.13;87.31
62703;BME280;48766;50.446;18.128;2022-12-10T16:38:38;98257.84;;;1.16;82.36
62703;BME280;48766;50.446;18.128;2022-12-10T16:42:51;98258.51;;;1.17;82.42
62703;BME280;48766;50.446;18.128;2022-12-10T16:46:58;98257.92;;;1.16;83.56
62703;BME280;48766;50.446;18.128;2022-12-10T16:51:18;98254.47;;;1.17;82.26
62703;BME280;48766;50.446;18.128;2022-12-10T16:55:19;98250.98;;;1.15;86.08
62703;BME280;48766;50.446;18.128;2022-12-10T16:59:28;98248.74;;;1.16;81.89
62703;BME280;48766;50.446;18.128;2022-12-10T17:03:38;98246.20;;;1.16;81.64
62703;BME280;48766;50.446;18.128;2022-12-10T17:07:48;98244.04;;;1.17;82.41
62703;BME280;48766;50.446;18.128;2022-12-10T17:11:58;98240.40;;;1.17;82.06
62703;BME280;48766;50.446;18.128;2022-12-10T17:20:18;98239.56;;;1.16;81.83
62703;BME280;48766;50.446;18.128;2022-12-10T17:24:28;98239.83;;;1.13;85.59
62703;BME280;48766;50.446;18.128;2022-12-10T17:28:39;98238.65;;;1.14;82.16
62703;BME280;48766;50.446;18.128;2022-12-10T17:32:48;98239.07;;;1.14;81.28
62703;BME280;48766;50.446;18.128;2022-12-10T17:36:58;98240.97;;;1.12;82.66
62703;BME280;48766;50.446;18.128;2022-12-10T17:41:08;98244.45;;;1.14;82.02
62703;BME280;48766;50.446;18.128;2022-12-10T17:45:18;98247.09;;;1.14;90.91
62703;BME280;48766;50.446;18.128;2022-12-10T17:49:28;98248.00;;;1.18;81.87
62703;BME280;48766;50.446;18.128;2022-12-10T17:53:38;98250.64;;;1.20;81.71
62703;BME280;48766;50.446;18.128;2022-12-10T17:57:48;98252.72;;;1.21;82.10
62703;BME280;48766;50.446;18.128;2022-12-10T18:01:58;98254.71;;;1.22;81.54
62703;BME280;48766;50.446;18.128;2022-12-10T18:06:10;98257.35;;;1.24;83.68
62703;BME280;48766;50.446;18.128;2022-12-10T18:10:22;98256.34;;;1.28;81.39
62703;BME280;48766;50.446;18.128;2022-12-10T18:14:28;98253.85;;;1.28;85.08
62703;BME280;48766;50.446;18.128;2022-12-10T18:18:38;98251.64;;;1.30;81.25
62703;BME280;48766;50.446;18.128;2022-12-10T18:22:48;98248.22;;;1.31;80.82
62703;BME280;48766;50.446;18.128;2022-12-10T18:26:58;98243.45;;;1.30;82.15
62703;BME280;48766;50.446;18.128;2022-12-10T18:31:09;98238.22;;;1.29;81.37
62703;BME280;48766;50.446;18.128;2022-12-10T18:35:18;98236.25;;;1.26;85.46
62703;BME280;48766;50.446;18.128;2022-12-10T18:39:28;98234.91;;;1.26;81.79
62703;BME280;48766;50.446;18.128;2022-12-10T18:43:38;98233.11;;;1.23;82.58
62703;BME280;48766;50.446;18.128;2022-12-10T18:47:48;98232.70;;;1.19;83.00
62703;BME280;48766;50.446;18.128;2022-12-10T18:51:58;98232.19;;;1.16;81.77
62703;BME280;48766;50.446;18.128;2022-12-10T18:56:26;98232.37;;;1.14;83.74
62703;BME280;48766;50.446;18.128;2022-12-10T19:00:20;98232.05;;;1.13;82.06
62703;BME280;48766;50.446;18.128;2022-12-10T19:04:28;98232.87;;;1.10;85.84
62703;BME280;48766;50.446;18.128;2022-12-10T19:08:38;98234.12;;;1.09;82.75
62703;BME280;48766;50.446;18.128;2022-12-10T19:12:48;98236.19;;;1.08;82.70
62703;BME280;48766;50.446;18.128;2022-12-10T19:16:58;98237.84;;;1.04;83.57
62703;BME280;48766;50.446;18.128;2022-12-10T19:21:08;98240.33;;;1.04;82.14
62703;BME280;48766;50.446;18.128;2022-12-10T19:25:18;98241.23;;;1.01;86.85
62703;BME280;48766;50.446;18.128;2022-12-10T19:29:28;98241.50;;;1.01;82.72
62703;BME280;48766;50.446;18.128;2022-12-10T19:33:39;98243.22;;;1.01;82.27
62703;BME280;48766;50.446;18.128;2022-12-10T19:37:49;98245.14;;;1.00;82.94
62703;BME280;48766;50.446;18.128;2022-12-10T19:41:58;98248.85;;;1.01;82.83
62703;BME280;48766;50.446;18.128;2022-12-10T19:46:15;98252.56;;;1.01;84.31
62703;BME280;48766;50.446;18.128;2022-12-10T19:50:19;98255.14;;;1.04;82.29
62703;BME280;48766;50.446;18.128;2022-12-10T19:54:28;98256.28;;;1.03;86.25
62703;BME280;48766;50.446;18.128;2022-12-10T19:58:38;98257.28;;;1.05;82.35
62703;BME280;48766;50.446;18.128;2022-12-10T20:02:48;98257.53;;;1.06;81.79
62703;BME280;48766;50.446;18.128;2022-12-10T20:07:00;98257.20;;;1.06;82.98
62703;BME280;48766;50.446;18.128;2022-12-10T20:11:08;98257.78;;;1.08;81.59
62703;BME280;48766;50.446;18.128;2022-12-10T20:15:19;98256.55;;;1.08;86.26
62703;BME280;48766;50.446;18.128;2022-12-10T20:19:28;98253.23;;;1.10;82.11
62703;BME280;48766;50.446;18.128;2022-12-10T20:23:38;98249.08;;;1.10;82.36
62703;BME280;48766;50.446;18.128;2022-12-10T20:27:48;98244.12;;;1.10;82.80
62703;BME280;48766;50.446;18.128;2022-12-10T20:31:58;98239.48;;;1.11;82.44
62703;BME280;48766;50.446;18.128;2022-12-10T20:36:12;98234.20;;;1.10;84.61
62703;BME280;48766;50.446;18.128;2022-12-10T20:44:28;98223.71;;;1.07;86.65
62703;BME280;48766;50.446;18.128;2022-12-10T20:48:38;98220.23;;;1.07;82.58
62703;BME280;48766;50.446;18.128;2022-12-10T20:52:48;98219.00;;;1.07;82.91
62703;BME280;48766;50.446;18.128;2022-12-10T20:56:58;98217.75;;;1.04;84.20
62703;BME280;48766;50.446;18.128;2022-12-10T21:01:08;98218.50;;;1.02;83.34
62703;BME280;48766;50.446;18.128;2022-12-10T21:05:18;98218.34;;;0.98;87.40
62703;BME280;48766;50.446;18.128;2022-12-10T21:09:28;98217.50;;;0.97;82.93
62703;BME280;48766;50.446;18.128;2022-12-10T21:13:38;98216.26;;;0.95;83.63
62703;BME280;48766;50.446;18.128;2022-12-10T21:17:48;98216.58;;;0.93;83.48
62703;BME280;48766;50.446;18.128;2022-12-10T21:21:58;98217.26;;;0.93;82.70
62703;BME280;48766;50.446;18.128;2022-12-10T21:26:09;98218.00;;;0.93;84.45
62703;BME280;48766;50.446;18.128;2022-12-10T21:30:18;98218.51;;;0.94;82.96
62703;BME280;48766;50.446;18.128;2022-12-10T21:34:28;98218.52;;;0.92;86.50
62703;BME280;48766;50.446;18.128;2022-12-10T21:38:38;98218.42;;;0.92;83.07
62703;BME280;48766;50.446;18.128;2022-12-10T21:42:49;98219.15;;;0.92;82.86
62703;BME280;48766;50.446;18.128;2022-12-10T21:46:58;98220.24;;;0.89;83.92
62703;BME280;48766;50.446;18.128;2022-12-10T21:51:08;98220.50;;;0.89;82.54
62703;BME280;48766;50.446;18.128;2022-12-10T21:55:19;98219.50;;;0.86;86.42
62703;BME280;48766;50.446;18.128;2022-12-10T21:59:28;98218.84;;;0.86;83.11
62703;BME280;48766;50.446;18.128;2022-12-10T22:03:38;98217.11;;;0.87;82.68
62703;BME280;48766;50.446;18.128;2022-12-10T22:07:48;98214.69;;;0.87;83.05
62703;BME280;48766;50.446;18.128;2022-12-10T22:11:58;98213.28;;;0.89;82.33
62703;BME280;48766;50.446;18.128;2022-12-10T22:16:08;98211.38;;;0.90;84.30
62703;BME280;48766;50.446;18.128;2022-12-10T22:20:18;98208.34;;;0.92;81.96
62703;BME280;48766;50.446;18.128;2022-12-10T22:24:29;98206.00;;;0.92;85.78
62703;BME280;48766;50.446;18.128;2022-12-10T22:28:38;98204.69;;;0.94;81.75
62703;BME280;48766;50.446;18.128;2022-12-10T22:32:50;98205.92;;;0.97;81.60
62703;BME280;48766;50.446;18.128;2022-12-10T22:36:58;98207.40;;;0.97;82.43
62703;BME280;48766;50.446;18.128;2022-12-10T22:41:08;98209.14;;;1.01;81.70
62703;BME280;48766;50.446;18.128;2022-12-10T22:45:18;98210.64;;;1.02;86.15
62703;BME280;48766;50.446;18.128;2022-12-10T22:49:28;98208.87;;;1.05;82.08
62703;BME280;48766;50.446;18.128;2022-12-10T22:53:38;98209.23;;;1.07;81.58
62703;BME280;48766;50.446;18.128;2022-12-10T22:57:48;98207.72;;;1.09;82.29
62703;BME280;48766;50.446;18.128;2022-12-10T23:01:58;98204.08;;;1.10;81.86
62703;BME280;48766;50.446;18.128;2022-12-10T23:06:08;98200.27;;;1.11;83.97
62703;BME280;48766;50.446;18.128;2022-12-10T23:10:18;98195.97;;;1.12;81.77
62703;BME280;48766;50.446;18.128;2022-12-10T23:14:28;98193.75;;;1.11;85.70
62703;BME280;48766;50.446;18.128;2022-12-10T23:18:39;98189.70;;;1.13;82.31
62703;BME280;48766;50.446;18.128;2022-12-10T23:22:48;98187.55;;;1.13;81.55
62703;BME280;48766;50.446;18.128;2022-12-10T23:26:58;98186.95;;;1.10;83.00
62703;BME280;48766;50.446;18.128;2022-12-10T23:31:08;98184.72;;;1.11;82.05
62703;BME280;48766;50.446;18.128;2022-12-10T23:35:21;98184.00;;;1.09;86.25
62703;BME280;48766;50.446;18.128;2022-12-10T23:39:28;98183.15;;;1.10;81.92
62703;BME280;48766;50.446;18.128;2022-12-10T23:43:38;98182.59;;;1.10;81.47
62703;BME280;48766;50.446;18.128;2022-12-10T23:47:48;98180.69;;;1.09;82.28
62703;BME280;48766;50.446;18.128;2022-12-10T23:51:58;98179.27;;;1.10;82.08
